sensor_id;sensor_type;location;lat;lon;timestamp;temperature;humidity
16271;DHT22;8243;49.048;8.396;2023-04-15T00:00:28;4.10;99.90
16271;DHT22;8243;49.048;8.396;2023-04-15T00:02:54;4.10;99.90
16271;DHT22;8243;49.048;8.396;2023-04-15T00:05:20;4.00;99.90
16271;DHT22;8243;49.048;8.396;2023-04-15T00:07:46;4.00;99.90
16271;DHT22;8243;49.048;8.396;2023-04-15T00:10:12;4.10;99.90
16271;DHT22;8243;49.048;8.396;2023-04-15T00:12:38;4.10;99.90
16271;DHT22;8243;49.048;8.396;2023-04-15T00:15:04;3.80;99.90
16271;DHT22;8243;49.048;8.396;2023-04-15T00:17:31;3.90;99.90
16271;DHT22;8243;49.048;8.396;2023-04-15T00:19:56;3.90;99.90
16271;DHT22;8243;49.048;8.396;2023-04-15T00:22:25;3.80;99.90
16271;DHT22;8243;49.048;8.396;2023-04-15T00:24:52;3.80;99.90
16271;DHT22;8243;49.048;8.396;2023-04-15T00:27:18;3.90;99.90
16271;DHT22;8243;49.048;8.396;2023-04-15T00:29:44;3.80;99.90
16271;DHT22;8243;49.048;8.396;2023-04-15T00:32:10;3.70;99.90
16271;DHT22;8243;49.048;8.396;2023-04-15T00:34:36;3.70;99.90
16271;DHT22;8243;49.048;8.396;2023-04-15T00:37:02;3.90;99.90
16271;DHT22;8243;49.048;8.396;2023-04-15T00:39:27;3.60;99.90
16271;DHT22;8243;49.048;8.396;2023-04-15T00:41:54;3.40;99.90
16271;DHT22;8243;49.048;8.396;2023-04-15T00:44:20;3.80;99.90
16271;DHT22;8243;49.048;8.396;2023-04-15T00:46:47;3.80;99.90
16271;DHT22;8243;49.048;8.396;2023-04-15T00:49:17;3.70;99.90
16271;DHT22;8243;49.048;8.396;2023-04-15T00:51:44;3.50;99.90
16271;DHT22;8243;49.048;8.396;2023-04-15T00:54:16;3.60;99.90
16271;DHT22;8243;49.048;8.396;2023-04-15T00:56:42;3.60;99.90
16271;DHT22;8243;49.048;8.396;2023-04-15T00:59:08;3.50;99.90
16271;DHT22;8243;49.048;8.396;2023-04-15T01:01:35;3.60;99.90
16271;DHT22;8243;49.048;8.396;2023-04-15T01:04:01;3.50;99.90
16271;DHT22;8243;49.048;8.396;2023-04-15T01:06:29;3.50;99.90
16271;DHT22;8243;49.048;8.396;2023-04-15T01:08:56;3.50;99.90
16271;DHT22;8243;49.048;8.396;2023-04-15T01:11:23;3.50;99.90
16271;DHT22;8243;49.048;8.396;2023-04-15T01:13:50;3.50;99.90
16271;DHT22;8243;49.048;8.396;2023-04-15T01:16:17;3.50;99.90
16271;DHT22;8243;49.048;8.396;2023-04-15T01:18:44;3.40;99.90
16271;DHT22;8243;49.048;8.396;2023-04-15T01:21:10;3.20;99.90
16271;DHT22;8243;49.048;8.396;2023-04-15T01:23:37;3.20;99.90
16271;DHT22;8243;49.048;8.396;2023-04-15T01:26:03;2.90;99.90
16271;DHT22;8243;49.048;8.396;2023-04-15T01:28:30;3.30;99.90
16271;DHT22;8243;49.048;8.396;2023-04-15T01:31:12;3.00;99.90
16271;DHT22;8243;49.048;8.396;2023-04-15T01:33:40;3.20;99.90
16271;DHT22;8243;49.048;8.396;2023-04-15T01:36:07;3.10;99.90
16271;DHT22;8243;49.048;8.396;2023-04-15T01:38:35;3.10;99.90
16271;DHT22;8243;49.048;8.396;2023-04-15T01:41:01;3.10;99.90
16271;DHT22;8243;49.048;8.396;2023-04-15T01:43:29;3.00;99.90
16271;DHT22;8243;49.048;8.396;2023-04-15T01:45:55;3.00;99.90
16271;DHT22;8243;49.048;8.396;2023-04-15T01:48:21;2.90;99.90
16271;DHT22;8243;49.048;8.396;2023-04-15T01:50:48;2.90;99.90
16271;DHT22;8243;49.048;8.396;2023-04-15T01:53:14;2.80;99.90
16271;DHT22;8243;49.048;8.396;2023-04-15T01:55:41;2.30;99.90
16271;DHT22;8243;49.048;8.396;2023-04-15T01:58:07;2.60;99.90
16271;DHT22;8243;49.048;8.396;2023-04-15T02:00:34;2.70;99.90
16271;DHT22;8243;49.048;8.396;2023-04-15T02:03:03;2.70;99.90
16271;DHT22;8243;49.048;8.396;2023-04-15T02:05:29;2.60;99.90
16271;DHT22;8243;49.048;8.396;2023-04-15T02:07:56;2.50;99.90
16271;DHT22;8243;49.048;8.396;2023-04-15T02:10:23;2.40;99.90
16271;DHT22;8243;49.048;8.396;2023-04-15T02:12:49;2.50;99.90
16271;DHT22;8243;49.048;8.396;2023-04-15T02:15:15;2.60;99.90
16271;DHT22;8243;49.048;8.396;2023-04-15T02:17:40;2.80;99.90
16271;DHT22;8243;49.048;8.396;2023-04-15T02:20:10;2.70;99.90
16271;DHT22;8243;49.048;8.396;2023-04-15T02:22:36;2.80;99.90
16271;DHT22;8243;49.048;8.396;2023-04-15T02:25:02;3.00;99.90
16271;DHT22;8243;49.048;8.396;2023-04-15T02:27:27;2.70;99.90
16271;DHT22;8243;49.048;8.396;2023-04-15T02:29:53;2.80;99.90
16271;DHT22;8243;49.048;8.396;2023-04-15T02:32:19;2.90;99.90
16271;DHT22;8243;49.048;8.396;2023-04-15T02:34:47;2.70;99.90
16271;DHT22;8243;49.048;8.396;2023-04-15T02:37:15;3.00;99.90
16271;DHT22;8243;49.048;8.396;2023-04-15T02:39:41;2.60;99.90
16271;DHT22;8243;49.048;8.396;2023-04-15T02:42:09;2.70;99.90
16271;DHT22;8243;49.048;8.396;2023-04-15T02:44:36;2.70;99.90
16271;DHT22;8243;49.048;8.396;2023-04-15T02:47:02;2.70;99.90
16271;DHT22;8243;49.048;8.396;2023-04-15T02:49:29;2.60;99.90
16271;DHT22;8243;49.048;8.396;2023-04-15T02:51:55;2.40;99.90
16271;DHT22;8243;49.048;8.396;2023-04-15T02:54:23;2.70;99.90
16271;DHT22;8243;49.048;8.396;2023-04-15T02:56:50;2.60;99.90
16271;DHT22;8243;49.048;8.396;2023-04-15T02:59:19;2.70;99.90
16271;DHT22;8243;49.048;8.396;2023-04-15T03:01:45;2.40;99.90
16271;DHT22;8243;49.048;8.396;2023-04-15T03:04:10;2.60;99.90
16271;DHT22;8243;49.048;8.396;2023-04-15T03:06:42;2.50;99.90
16271;DHT22;8243;49.048;8.396;2023-04-15T03:09:08;2.60;99.90
16271;DHT22;8243;49.048;8.396;2023-04-15T03:11:34;2.30;99.90
16271;DHT22;8243;49.048;8.396;2023-04-15T03:14:04;2.60;99.90
16271;DHT22;8243;49.048;8.396;2023-04-15T03:16:46;2.20;99.90
16271;DHT22;8243;49.048;8.396;2023-04-15T03:19:12;2.20;99.90
16271;DHT22;8243;49.048;8.396;2023-04-15T03:21:39;2.30;99.90
16271;DHT22;8243;49.048;8.396;2023-04-15T03:24:05;2.10;99.90
16271;DHT22;8243;49.048;8.396;2023-04-15T03:26:31;2.20;99.90
16271;DHT22;8243;49.048;8.396;2023-04-15T03:28:57;2.00;99.90
16271;DHT22;8243;49.048;8.396;2023-04-15T03:31:23;2.00;99.90
16271;DHT22;8243;49.048;8.396;2023-04-15T03:33:49;2.00;99.90
16271;DHT22;8243;49.048;8.396;2023-04-15T03:36:16;1.90;99.90
16271;DHT22;8243;49.048;8.396;2023-04-15T03:38:42;1.90;99.90
16271;DHT22;8243;49.048;8.396;2023-04-15T03:41:08;1.80;99.90
16271;DHT22;8243;49.048;8.396;2023-04-15T03:43:34;1.90;99.90
16271;DHT22;8243;49.048;8.396;2023-04-15T03:46:00;1.80;99.90
16271;DHT22;8243;49.048;8.396;2023-04-15T03:48:28;1.80;99.90
16271;DHT22;8243;49.048;8.396;2023-04-15T03:50:53;1.60;99.90
16271;DHT22;8243;49.048;8.396;2023-04-15T03:53:20;1.60;99.90
16271;DHT22;8243;49.048;8.396;2023-04-15T03:55:46;1.80;99.90
16271;DHT22;8243;49.048;8.396;2023-04-15T03:58:12;1.60;99.90
16271;DHT22;8243;49.048;8.396;2023-04-15T04:00:39;1.70;99.90
16271;DHT22;8243;49.048;8.396;2023-04-15T04:03:06;1.80;99.90
16271;DHT22;8243;49.048;8.396;2023-04-15T04:05:31;1.80;99.90
16271;DHT22;8243;49.048;8.396;2023-04-15T04:07:57;1.60;99.90
16271;DHT22;8243;49.048;8.396;2023-04-15T04:10:23;1.70;99.90
16271;DHT22;8243;49.048;8.396;2023-04-15T04:12:48;1.70;99.90
16271;DHT22;8243;49.048;8.396;2023-04-15T04:15:14;1.60;99.90
16271;DHT22;8243;49.048;8.396;2023-04-15T04:17:40;1.60;99.90
16271;DHT22;8243;49.048;8.396;2023-04-15T04:20:07;1.50;99.90
16271;DHT22;8243;49.048;8.396;2023-04-15T04:22:37;1.60;99.90
16271;DHT22;8243;49.048;8.396;2023-04-15T04:25:03;1.60;99.90
16271;DHT22;8243;49.048;8.396;2023-04-15T04:27:33;1.50;99.90
16271;DHT22;8243;49.048;8.396;2023-04-15T04:30:00;1.50;99.90
16271;DHT22;8243;49.048;8.396;2023-04-15T04:32:26;1.30;99.90
16271;DHT22;8243;49.048;8.396;2023-04-15T04:34:53;1.60;99.90
16271;DHT22;8243;49.048;8.396;2023-04-15T04:37:19;1.30;99.90
16271;DHT22;8243;49.048;8.396;2023-04-15T04:39:47;1.60;99.90
16271;DHT22;8243;49.048;8.396;2023-04-15T04:42:13;1.30;99.90
16271;DHT22;8243;49.048;8.396;2023-04-15T04:44:39;1.40;99.90
16271;DHT22;8243;49.048;8.396;2023-04-15T04:47:06;1.40;99.90
16271;DHT22;8243;49.048;8.396;2023-04-15T04:49:32;1.60;99.90
16271;DHT22;8243;49.048;8.396;2023-04-15T04:51:58;1.40;99.90
16271;DHT22;8243;49.048;8.396;2023-04-15T04:54:24;1.40;99.90
16271;DHT22;8243;49.048;8.396;2023-04-15T04:56:50;1.60;99.90
16271;DHT22;8243;49.048;8.396;2023-04-15T04:59:16;1.60;99.90
16271;DHT22;8243;49.048;8.396;2023-04-15T05:01:42;1.50;99.90
16271;DHT22;8243;49.048;8.396;2023-04-15T05:04:11;1.60;99.90
16271;DHT22;8243;49.048;8.396;2023-04-15T05:06:36;1.90;99.90
16271;DHT22;8243;49.048;8.396;2023-04-15T05:09:03;1.90;99.90
16271;DHT22;8243;49.048;8.396;2023-04-15T05:11:29;2.10;99.90
16271;DHT22;8243;49.048;8.396;2023-04-15T05:13:55;2.30;99.90
16271;DHT22;8243;49.048;8.396;2023-04-15T05:16:23;2.70;99.90
16271;DHT22;8243;49.048;8.396;2023-04-15T05:18:50;2.90;99.90
16271;DHT22;8243;49.048;8.396;2023-04-15T05:21:16;3.00;99.90
16271;DHT22;8243;49.048;8.396;2023-04-15T05:23:41;3.30;99.90
16271;DHT22;8243;49.048;8.396;2023-04-15T05:26:07;3.40;99.90
16271;DHT22;8243;49.048;8.396;2023-04-15T05:28:33;3.70;99.90
16271;DHT22;8243;49.048;8.396;2023-04-15T05:30:59;3.90;99.90
16271;DHT22;8243;49.048;8.396;2023-04-15T05:33:25;4.40;99.90
16271;DHT22;8243;49.048;8.396;2023-04-15T05:35:52;4.80;99.90
16271;DHT22;8243;49.048;8.396;2023-04-15T05:38:18;5.70;99.90
16271;DHT22;8243;49.048;8.396;2023-04-15T05:40:44;6.70;99.90
16271;DHT22;8243;49.048;8.396;2023-04-15T05:43:09;7.00;97.70
16271;DHT22;8243;49.048;8.396;2023-04-15T05:45:35;7.30;93.00
16271;DHT22;8243;49.048;8.396;2023-04-15T05:48:00;7.60;90.10
16271;DHT22;8243;49.048;8.396;2023-04-15T05:50:26;7.60;89.30
16271;DHT22;8243;49.048;8.396;2023-04-15T05:52:51;7.80;86.20
16271;DHT22;8243;49.048;8.396;2023-04-15T05:55:17;8.00;82.80
16271;DHT22;8243;49.048;8.396;2023-04-15T05:57:45;8.40;77.60
16271;DHT22;8243;49.048;8.396;2023-04-15T06:00:16;8.20;77.70
16271;DHT22;8243;49.048;8.396;2023-04-15T06:02:42;8.90;73.00
16271;DHT22;8243;49.048;8.396;2023-04-15T06:05:07;9.30;67.00
16271;DHT22;8243;49.048;8.396;2023-04-15T06:07:35;9.50;63.50
16271;DHT22;8243;49.048;8.396;2023-04-15T06:10:02;9.30;63.20
16271;DHT22;8243;49.048;8.396;2023-04-15T06:12:28;9.90;61.80
16271;DHT22;8243;49.048;8.396;2023-04-15T06:14:54;10.70;56.10
16271;DHT22;8243;49.048;8.396;2023-04-15T06:17:20;11.60;48.50
16271;DHT22;8243;49.048;8.396;2023-04-15T06:19:45;11.60;42.40
16271;DHT22;8243;49.048;8.396;2023-04-15T06:22:11;11.10;41.90
16271;DHT22;8243;49.048;8.396;2023-04-15T06:24:37;11.20;39.80
16271;DHT22;8243;49.048;8.396;2023-04-15T06:27:02;11.10;38.00
16271;DHT22;8243;49.048;8.396;2023-04-15T06:29:31;10.80;38.30
16271;DHT22;8243;49.048;8.396;2023-04-15T06:31:57;10.50;38.30
16271;DHT22;8243;49.048;8.396;2023-04-15T06:34:34;10.80;36.00
16271;DHT22;8243;49.048;8.396;2023-04-15T06:37:05;10.70;36.40
16271;DHT22;8243;49.048;8.396;2023-04-15T06:39:43;10.60;35.20
16271;DHT22;8243;49.048;8.396;2023-04-15T06:42:12;10.30;36.80
16271;DHT22;8243;49.048;8.396;2023-04-15T06:44:38;10.20;36.90
16271;DHT22;8243;49.048;8.396;2023-04-15T06:47:08;10.70;34.30
16271;DHT22;8243;49.048;8.396;2023-04-15T06:49:34;10.60;32.90
16271;DHT22;8243;49.048;8.396;2023-04-15T06:52:02;10.40;34.00
16271;DHT22;8243;49.048;8.396;2023-04-15T06:54:37;10.20;34.60
16271;DHT22;8243;49.048;8.396;2023-04-15T06:57:05;10.20;33.70
16271;DHT22;8243;49.048;8.396;2023-04-15T06:59:35;10.30;33.70
16271;DHT22;8243;49.048;8.396;2023-04-15T07:02:01;10.10;34.20
16271;DHT22;8243;49.048;8.396;2023-04-15T07:04:27;10.10;34.20
16271;DHT22;8243;49.048;8.396;2023-04-15T07:07:08;10.40;32.60
16271;DHT22;8243;49.048;8.396;2023-04-15T07:09:34;10.40;33.90
16271;DHT22;8243;49.048;8.396;2023-04-15T07:11:59;11.00;31.40
16271;DHT22;8243;49.048;8.396;2023-04-15T07:14:25;11.50;29.50
16271;DHT22;8243;49.048;8.396;2023-04-15T07:16:50;12.00;26.80
16271;DHT22;8243;49.048;8.396;2023-04-15T07:19:16;11.60;27.10
16271;DHT22;8243;49.048;8.396;2023-04-15T07:21:41;11.20;26.60
16271;DHT22;8243;49.048;8.396;2023-04-15T07:24:07;11.00;27.20
16271;DHT22;8243;49.048;8.396;2023-04-15T07:26:34;11.10;27.30
16271;DHT22;8243;49.048;8.396;2023-04-15T07:29:00;11.00;28.00
16271;DHT22;8243;49.048;8.396;2023-04-15T07:31:27;11.40;26.80
16271;DHT22;8243;49.048;8.396;2023-04-15T07:33:52;12.20;26.10
16271;DHT22;8243;49.048;8.396;2023-04-15T07:36:19;13.20;23.20
16271;DHT22;8243;49.048;8.396;2023-04-15T07:38:45;13.60;22.10
16271;DHT22;8243;49.048;8.396;2023-04-15T07:41:14;14.60;19.40
16271;DHT22;8243;49.048;8.396;2023-04-15T07:43:40;13.80;19.10
16271;DHT22;8243;49.048;8.396;2023-04-15T07:46:05;14.10;17.30
16271;DHT22;8243;49.048;8.396;2023-04-15T07:48:32;14.90;16.90
16271;DHT22;8243;49.048;8.396;2023-04-15T07:50:58;15.20;15.70
16271;DHT22;8243;49.048;8.396;2023-04-15T07:53:23;16.40;14.50
16271;DHT22;8243;49.048;8.396;2023-04-15T07:55:49;16.70;13.70
16271;DHT22;8243;49.048;8.396;2023-04-15T07:58:15;16.20;13.50
16271;DHT22;8243;49.048;8.396;2023-04-15T08:00:40;16.00;13.10
16271;DHT22;8243;49.048;8.396;2023-04-15T08:03:06;15.50;14.40
16271;DHT22;8243;49.048;8.396;2023-04-15T08:05:32;15.40;14.80
16271;DHT22;8243;49.048;8.396;2023-04-15T08:08:00;16.80;12.80
16271;DHT22;8243;49.048;8.396;2023-04-15T08:10:27;17.00;11.50
16271;DHT22;8243;49.048;8.396;2023-04-15T08:12:53;17.60;10.40
16271;DHT22;8243;49.048;8.396;2023-04-15T08:15:19;17.90;9.30
16271;DHT22;8243;49.048;8.396;2023-04-15T08:17:45;18.00;8.70
16271;DHT22;8243;49.048;8.396;2023-04-15T08:20:11;17.70;8.50
16271;DHT22;8243;49.048;8.396;2023-04-15T08:22:38;16.40;10.20
16271;DHT22;8243;49.048;8.396;2023-04-15T08:25:05;16.80;10.60
16271;DHT22;8243;49.048;8.396;2023-04-15T08:27:31;17.10;10.50
16271;DHT22;8243;49.048;8.396;2023-04-15T08:29:56;16.30;11.40
16271;DHT22;8243;49.048;8.396;2023-04-15T08:32:32;16.10;12.00
16271;DHT22;8243;49.048;8.396;2023-04-15T08:34:58;17.00;11.80
16271;DHT22;8243;49.048;8.396;2023-04-15T08:37:24;17.50;10.90
16271;DHT22;8243;49.048;8.396;2023-04-15T08:39:51;18.00;10.00
16271;DHT22;8243;49.048;8.396;2023-04-15T08:42:20;18.00;10.00
16271;DHT22;8243;49.048;8.396;2023-04-15T08:44:48;18.10;10.20
16271;DHT22;8243;49.048;8.396;2023-04-15T08:47:20;17.50;9.60
16271;DHT22;8243;49.048;8.396;2023-04-15T08:50:08;17.70;10.50
16271;DHT22;8243;49.048;8.396;2023-04-15T08:52:34;18.00;9.60
16271;DHT22;8243;49.048;8.396;2023-04-15T08:55:01;18.90;9.40
16271;DHT22;8243;49.048;8.396;2023-04-15T08:57:27;19.00;9.50
16271;DHT22;8243;49.048;8.396;2023-04-15T08:59:55;18.90;9.00
16271;DHT22;8243;49.048;8.396;2023-04-15T09:02:23;19.00;8.90
16271;DHT22;8243;49.048;8.396;2023-04-15T09:04:50;18.10;9.20
16271;DHT22;8243;49.048;8.396;2023-04-15T09:07:15;18.30;9.50
16271;DHT22;8243;49.048;8.396;2023-04-15T09:09:41;18.80;8.10
16271;DHT22;8243;49.048;8.396;2023-04-15T09:12:08;18.30;9.30
16271;DHT22;8243;49.048;8.396;2023-04-15T09:14:34;18.90;8.40
16271;DHT22;8243;49.048;8.396;2023-04-15T09:17:03;18.30;9.00
16271;DHT22;8243;49.048;8.396;2023-04-15T09:19:36;17.40;10.30
16271;DHT22;8243;49.048;8.396;2023-04-15T09:22:02;16.90;10.70
16271;DHT22;8243;49.048;8.396;2023-04-15T09:24:40;16.50;11.50
16271;DHT22;8243;49.048;8.396;2023-04-15T09:27:11;15.50;12.60
16271;DHT22;8243;49.048;8.396;2023-04-15T09:29:42;15.20;14.10
16271;DHT22;8243;49.048;8.396;2023-04-15T09:32:09;15.90;14.70
16271;DHT22;8243;49.048;8.396;2023-04-15T09:34:36;16.70;13.50
16271;DHT22;8243;49.048;8.396;2023-04-15T09:37:02;17.30;12.10
16271;DHT22;8243;49.048;8.396;2023-04-15T09:39:44;16.00;13.40
16271;DHT22;8243;49.048;8.396;2023-04-15T09:42:12;15.80;15.10
16271;DHT22;8243;49.048;8.396;2023-04-15T09:44:38;15.40;15.00
16271;DHT22;8243;49.048;8.396;2023-04-15T09:47:04;15.80;15.40
16271;DHT22;8243;49.048;8.396;2023-04-15T09:49:30;16.00;15.00
16271;DHT22;8243;49.048;8.396;2023-04-15T09:52:00;16.20;14.70
16271;DHT22;8243;49.048;8.396;2023-04-15T09:54:34;16.70;15.10
16271;DHT22;8243;49.048;8.396;2023-04-15T09:57:04;16.60;14.30
16271;DHT22;8243;49.048;8.396;2023-04-15T09:59:30;16.90;14.10
16271;DHT22;8243;49.048;8.396;2023-04-15T10:01:57;16.90;14.10
16271;DHT22;8243;49.048;8.396;2023-04-15T10:04:23;16.60;14.40
16271;DHT22;8243;49.048;8.396;2023-04-15T10:06:50;16.10;15.60
16271;DHT22;8243;49.048;8.396;2023-04-15T10:09:16;16.40;15.30
16271;DHT22;8243;49.048;8.396;2023-04-15T10:11:42;17.00;15.50
16271;DHT22;8243;49.048;8.396;2023-04-15T10:14:11;17.10;14.30
16271;DHT22;8243;49.048;8.396;2023-04-15T10:16:42;16.70;14.50
16271;DHT22;8243;49.048;8.396;2023-04-15T10:19:14;16.60;14.30
16271;DHT22;8243;49.048;8.396;2023-04-15T10:21:43;16.40;14.90
16271;DHT22;8243;49.048;8.396;2023-04-15T10:24:10;16.50;14.60
16271;DHT22;8243;49.048;8.396;2023-04-15T10:26:37;16.50;14.00
16271;DHT22;8243;49.048;8.396;2023-04-15T10:29:03;16.50;15.50
16271;DHT22;8243;49.048;8.396;2023-04-15T10:31:30;16.70;15.30
16271;DHT22;8243;49.048;8.396;2023-04-15T10:33:57;17.30;14.30
16271;DHT22;8243;49.048;8.396;2023-04-15T10:36:28;17.10;13.90
16271;DHT22;8243;49.048;8.396;2023-04-15T10:38:54;17.30;14.00
16271;DHT22;8243;49.048;8.396;2023-04-15T10:41:24;17.90;13.80
16271;DHT22;8243;49.048;8.396;2023-04-15T10:43:51;18.40;12.20
16271;DHT22;8243;49.048;8.396;2023-04-15T10:46:39;19.00;10.10
16271;DHT22;8243;49.048;8.396;2023-04-15T10:51:44;17.80;10.90
16271;DHT22;8243;49.048;8.396;2023-04-15T10:54:16;17.70;11.30
16271;DHT22;8243;49.048;8.396;2023-04-15T10:56:45;18.00;12.10
16271;DHT22;8243;49.048;8.396;2023-04-15T10:59:15;18.40;11.20
16271;DHT22;8243;49.048;8.396;2023-04-15T11:01:51;18.70;10.20
16271;DHT22;8243;49.048;8.396;2023-04-15T11:04:57;18.80;10.30
16271;DHT22;8243;49.048;8.396;2023-04-15T11:12:53;17.70;9.50
16271;DHT22;8243;49.048;8.396;2023-04-15T11:15:29;16.80;7.90
16271;DHT22;8243;49.048;8.396;2023-04-15T11:20:38;16.30;9.60
16271;DHT22;8243;49.048;8.396;2023-04-15T11:23:05;16.30;9.10
16271;DHT22;8243;49.048;8.396;2023-04-15T11:25:32;16.30;8.90
16271;DHT22;8243;49.048;8.396;2023-04-15T11:28:00;16.30;9.20
16271;DHT22;8243;49.048;8.396;2023-04-15T11:30:29;16.10;9.00
16271;DHT22;8243;49.048;8.396;2023-04-15T11:33:02;16.20;9.80
16271;DHT22;8243;49.048;8.396;2023-04-15T11:35:28;16.00;9.80
16271;DHT22;8243;49.048;8.396;2023-04-15T11:37:54;16.00;10.40
16271;DHT22;8243;49.048;8.396;2023-04-15T11:40:29;15.90;9.60
16271;DHT22;8243;49.048;8.396;2023-04-15T11:45:46;15.90;9.80
16271;DHT22;8243;49.048;8.396;2023-04-15T11:48:12;16.30;10.00
16271;DHT22;8243;49.048;8.396;2023-04-15T11:50:39;16.10;9.60
16271;DHT22;8243;49.048;8.396;2023-04-15T11:53:07;16.30;10.30
16271;DHT22;8243;49.048;8.396;2023-04-15T11:55:46;16.30;9.40
16271;DHT22;8243;49.048;8.396;2023-04-15T11:58:14;16.50;7.70
16271;DHT22;8243;49.048;8.396;2023-04-15T12:03:22;16.20;6.90
16271;DHT22;8243;49.048;8.396;2023-04-15T12:06:18;16.40;7.60
16271;DHT22;8243;49.048;8.396;2023-04-15T12:11:16;16.00;7.70
16271;DHT22;8243;49.048;8.396;2023-04-15T12:13:46;16.10;8.70
16271;DHT22;8243;49.048;8.396;2023-04-15T12:16:15;16.50;7.60
16271;DHT22;8243;49.048;8.396;2023-04-15T12:18:41;16.40;7.60
16271;DHT22;8243;49.048;8.396;2023-04-15T12:21:10;16.30;8.00
16271;DHT22;8243;49.048;8.396;2023-04-15T12:23:49;16.10;9.50
16271;DHT22;8243;49.048;8.396;2023-04-15T12:26:16;16.50;8.90
16271;DHT22;8243;49.048;8.396;2023-04-15T12:28:42;16.80;7.90
16271;DHT22;8243;49.048;8.396;2023-04-15T12:31:10;16.80;7.50
16271;DHT22;8243;49.048;8.396;2023-04-15T12:33:37;16.90;6.00
16271;DHT22;8243;49.048;8.396;2023-04-15T12:36:04;16.90;6.10
16271;DHT22;8243;49.048;8.396;2023-04-15T12:38:30;16.80;6.20
16271;DHT22;8243;49.048;8.396;2023-04-15T12:40:57;16.50;4.60
16271;DHT22;8243;49.048;8.396;2023-04-15T12:43:22;16.90;5.80
16271;DHT22;8243;49.048;8.396;2023-04-15T12:45:48;16.80;3.50
16271;DHT22;8243;49.048;8.396;2023-04-15T12:48:14;16.60;4.10
16271;DHT22;8243;49.048;8.396;2023-04-15T12:50:39;16.30;4.20
16271;DHT22;8243;49.048;8.396;2023-04-15T12:53:08;16.10;3.70
16271;DHT22;8243;49.048;8.396;2023-04-15T12:55:34;15.90;4.00
16271;DHT22;8243;49.048;8.396;2023-04-15T12:58:00;16.10;4.00
16271;DHT22;8243;49.048;8.396;2023-04-15T13:00:25;16.10;3.60
16271;DHT22;8243;49.048;8.396;2023-04-15T13:02:51;16.30;4.30
16271;DHT22;8243;49.048;8.396;2023-04-15T13:05:18;16.60;4.10
16271;DHT22;8243;49.048;8.396;2023-04-15T13:07:43;16.40;4.70
16271;DHT22;8243;49.048;8.396;2023-04-15T13:10:10;16.20;5.70
16271;DHT22;8243;49.048;8.396;2023-04-15T13:12:37;16.00;6.40
16271;DHT22;8243;49.048;8.396;2023-04-15T13:15:03;15.90;6.80
16271;DHT22;8243;49.048;8.396;2023-04-15T13:17:29;15.70;7.20
16271;DHT22;8243;49.048;8.396;2023-04-15T13:19:55;15.60;7.90
16271;DHT22;8243;49.048;8.396;2023-04-15T13:22:23;15.50;8.30
16271;DHT22;8243;49.048;8.396;2023-04-15T13:24:49;15.50;8.30
16271;DHT22;8243;49.048;8.396;2023-04-15T13:27:15;15.30;8.60
16271;DHT22;8243;49.048;8.396;2023-04-15T13:29:41;15.20;9.10
16271;DHT22;8243;49.048;8.396;2023-04-15T13:32:07;15.20;9.20
16271;DHT22;8243;49.048;8.396;2023-04-15T13:34:32;15.10;9.30
16271;DHT22;8243;49.048;8.396;2023-04-15T13:36:58;14.90;10.00
16271;DHT22;8243;49.048;8.396;2023-04-15T13:39:23;14.90;10.30
16271;DHT22;8243;49.048;8.396;2023-04-15T13:41:50;14.90;10.50
16271;DHT22;8243;49.048;8.396;2023-04-15T13:44:15;14.90;10.70
16271;DHT22;8243;49.048;8.396;2023-04-15T13:46:42;14.70;11.20
16271;DHT22;8243;49.048;8.396;2023-04-15T13:49:09;14.80;11.60
16271;DHT22;8243;49.048;8.396;2023-04-15T13:51:35;14.80;11.40
16271;DHT22;8243;49.048;8.396;2023-04-15T13:54:01;14.70;11.80
16271;DHT22;8243;49.048;8.396;2023-04-15T13:56:27;14.60;12.00
16271;DHT22;8243;49.048;8.396;2023-04-15T13:58:58;14.70;12.10
16271;DHT22;8243;49.048;8.396;2023-04-15T14:01:26;14.50;11.60
16271;DHT22;8243;49.048;8.396;2023-04-15T14:03:53;14.40;11.70
16271;DHT22;8243;49.048;8.396;2023-04-15T14:06:19;14.40;11.80
16271;DHT22;8243;49.048;8.396;2023-04-15T14:08:45;14.30;11.80
16271;DHT22;8243;49.048;8.396;2023-04-15T14:11:11;14.20;11.70
16271;DHT22;8243;49.048;8.396;2023-04-15T14:13:37;14.20;12.10
16271;DHT22;8243;49.048;8.396;2023-04-15T14:16:03;14.20;11.30
16271;DHT22;8243;49.048;8.396;2023-04-15T14:18:29;14.20;11.80
16271;DHT22;8243;49.048;8.396;2023-04-15T14:20:55;14.10;11.60
16271;DHT22;8243;49.048;8.396;2023-04-15T14:23:21;14.10;11.60
16271;DHT22;8243;49.048;8.396;2023-04-15T14:25:48;14.10;11.60
16271;DHT22;8243;49.048;8.396;2023-04-15T14:28:14;14.20;10.90
16271;DHT22;8243;49.048;8.396;2023-04-15T14:30:41;14.20;10.90
16271;DHT22;8243;49.048;8.396;2023-04-15T14:33:06;14.30;11.00
16271;DHT22;8243;49.048;8.396;2023-04-15T14:35:32;14.30;10.00
16271;DHT22;8243;49.048;8.396;2023-04-15T14:37:57;14.30;9.40
16271;DHT22;8243;49.048;8.396;2023-04-15T14:40:23;14.20;9.40
16271;DHT22;8243;49.048;8.396;2023-04-15T14:42:49;14.30;10.00
16271;DHT22;8243;49.048;8.396;2023-04-15T14:45:15;14.40;9.50
16271;DHT22;8243;49.048;8.396;2023-04-15T14:47:42;14.30;8.70
16271;DHT22;8243;49.048;8.396;2023-04-15T14:50:08;14.40;9.10
16271;DHT22;8243;49.048;8.396;2023-04-15T14:52:33;14.30;9.00
16271;DHT22;8243;49.048;8.396;2023-04-15T14:55:07;14.40;9.20
16271;DHT22;8243;49.048;8.396;2023-04-15T14:57:35;14.30;8.10
16271;DHT22;8243;49.048;8.396;2023-04-15T15:00:02;14.30;8.60
16271;DHT22;8243;49.048;8.396;2023-04-15T15:02:28;14.30;8.40
16271;DHT22;8243;49.048;8.396;2023-04-15T15:04:55;14.40;8.30
16271;DHT22;8243;49.048;8.396;2023-04-15T15:07:22;14.30;8.20
16271;DHT22;8243;49.048;8.396;2023-04-15T15:09:47;14.40;8.30
16271;DHT22;8243;49.048;8.396;2023-04-15T15:12:13;14.30;8.00
16271;DHT22;8243;49.048;8.396;2023-04-15T15:14:39;14.40;8.20
16271;DHT22;8243;49.048;8.396;2023-04-15T15:17:04;14.40;8.50
16271;DHT22;8243;49.048;8.396;2023-04-15T15:19:30;14.50;8.10
16271;DHT22;8243;49.048;8.396;2023-04-15T15:21:56;14.40;8.30
16271;DHT22;8243;49.048;8.396;2023-04-15T15:24:21;14.40;8.20
16271;DHT22;8243;49.048;8.396;2023-04-15T15:26:47;14.30;8.60
16271;DHT22;8243;49.048;8.396;2023-04-15T15:29:13;14.30;8.60
16271;DHT22;8243;49.048;8.396;2023-04-15T15:31:39;14.40;8.70
16271;DHT22;8243;49.048;8.396;2023-04-15T15:34:05;14.50;8.60
16271;DHT22;8243;49.048;8.396;2023-04-15T15:36:32;14.50;8.90
16271;DHT22;8243;49.048;8.396;2023-04-15T15:38:58;14.40;8.50
16271;DHT22;8243;49.048;8.396;2023-04-15T15:41:24;14.40;8.70
16271;DHT22;8243;49.048;8.396;2023-04-15T15:43:51;14.30;9.40
16271;DHT22;8243;49.048;8.396;2023-04-15T15:46:18;14.30;9.80
16271;DHT22;8243;49.048;8.396;2023-04-15T15:48:44;14.20;10.10
16271;DHT22;8243;49.048;8.396;2023-04-15T15:51:10;14.10;11.00
16271;DHT22;8243;49.048;8.396;2023-04-15T15:53:37;14.00;11.70
16271;DHT22;8243;49.048;8.396;2023-04-15T15:56:04;13.90;12.40
16271;DHT22;8243;49.048;8.396;2023-04-15T15:58:30;13.90;13.40
16271;DHT22;8243;49.048;8.396;2023-04-15T16:00:56;13.70;14.10
16271;DHT22;8243;49.048;8.396;2023-04-15T16:03:22;13.60;15.90
16271;DHT22;8243;49.048;8.396;2023-04-15T16:05:48;13.40;19.70
16271;DHT22;8243;49.048;8.396;2023-04-15T16:08:14;13.10;22.90
16271;DHT22;8243;49.048;8.396;2023-04-15T16:10:40;12.90;26.50
16271;DHT22;8243;49.048;8.396;2023-04-15T16:13:07;12.70;29.50